sensor_id;sensor_type;location;lat;lon;timestamp;temperature;humidity
7648;DHT22;3866;48.020;11.720;2023-09-12T00:00:12;17.40;99.90
7648;DHT22;3866;48.020;11.720;2023-09-12T00:02:40;17.40;99.90
7648;DHT22;3866;48.020;11.720;2023-09-12T00:05:08;17.30;99.90
7648;DHT22;3866;48.020;11.720;2023-09-12T00:07:35;17.20;99.90
7648;DHT22;3866;48.020;11.720;2023-09-12T00:10:02;17.30;99.90
7648;DHT22;3866;48.020;11.720;2023-09-12T00:12:29;17.20;99.90
7648;DHT22;3866;48.020;11.720;2023-09-12T00:14:56;17.20;99.90
7648;DHT22;3866;48.020;11.720;2023-09-12T00:17:23;17.10;99.90
7648;DHT22;3866;48.020;11.720;2023-09-12T00:19:53;17.10;99.90
7648;DHT22;3866;48.020;11.720;2023-09-12T00:22:20;17.10;99.90
7648;DHT22;3866;48.020;11.720;2023-09-12T00:24:47;17.00;99.90
7648;DHT22;3866;48.020;11.720;2023-09-12T00:27:14;17.00;99.90
7648;DHT22;3866;48.020;11.720;2023-09-12T00:29:41;17.00;99.90
7648;DHT22;3866;48.020;11.720;2023-09-12T00:32:08;16.90;99.90
7648;DHT22;3866;48.020;11.720;2023-09-12T00:34:35;16.90;99.90
7648;DHT22;3866;48.020;11.720;2023-09-12T00:37:04;16.80;99.90
7648;DHT22;3866;48.020;11.720;2023-09-12T00:39:31;16.70;99.90
7648;DHT22;3866;48.020;11.720;2023-09-12T00:41:58;16.70;99.90
7648;DHT22;3866;48.020;11.720;2023-09-12T00:44:25;16.60;99.90
7648;DHT22;3866;48.020;11.720;2023-09-12T00:46:53;16.60;99.90
7648;DHT22;3866;48.020;11.720;2023-09-12T00:49:21;16.60;99.90
7648;DHT22;3866;48.020;11.720;2023-09-12T00:51:49;16.60;99.90
7648;DHT22;3866;48.020;11.720;2023-09-12T00:54:17;16.50;99.90
7648;DHT22;3866;48.020;11.720;2023-09-12T00:56:45;16.50;99.90
7648;DHT22;3866;48.020;11.720;2023-09-12T00:59:12;16.50;99.90
7648;DHT22;3866;48.020;11.720;2023-09-12T01:01:40;16.40;99.90
7648;DHT22;3866;48.020;11.720;2023-09-12T01:04:07;16.40;99.90
7648;DHT22;3866;48.020;11.720;2023-09-12T01:06:34;16.40;99.90
7648;DHT22;3866;48.020;11.720;2023-09-12T01:09:01;16.40;99.90
7648;DHT22;3866;48.020;11.720;2023-09-12T01:11:30;16.40;99.90
7648;DHT22;3866;48.020;11.720;2023-09-12T01:13:57;16.40;99.90
7648;DHT22;3866;48.020;11.720;2023-09-12T01:16:24;16.50;99.90
7648;DHT22;3866;48.020;11.720;2023-09-12T01:18:51;16.50;99.90
7648;DHT22;3866;48.020;11.720;2023-09-12T01:24:52;16.50;99.90
7648;DHT22;3866;48.020;11.720;2023-09-12T01:27:28;16.50;99.90
7648;DHT22;3866;48.020;11.720;2023-09-12T01:29:57;16.50;99.90
7648;DHT22;3866;48.020;11.720;2023-09-12T01:32:24;16.50;99.90
7648;DHT22;3866;48.020;11.720;2023-09-12T01:34:51;16.50;99.90
7648;DHT22;3866;48.020;11.720;2023-09-12T01:37:18;16.50;99.90
7648;DHT22;3866;48.020;11.720;2023-09-12T01:39:45;16.50;99.90
7648;DHT22;3866;48.020;11.720;2023-09-12T01:42:15;16.50;99.90
7648;DHT22;3866;48.020;11.720;2023-09-12T01:44:45;16.50;99.90
7648;DHT22;3866;48.020;11.720;2023-09-12T01:47:13;16.40;99.90
7648;DHT22;3866;48.020;11.720;2023-09-12T01:49:52;16.40;99.90
7648;DHT22;3866;48.020;11.720;2023-09-12T01:52:21;16.40;99.90
7648;DHT22;3866;48.020;11.720;2023-09-12T01:54:49;16.40;99.90
7648;DHT22;3866;48.020;11.720;2023-09-12T01:57:17;16.40;99.90
7648;DHT22;3866;48.020;11.720;2023-09-12T01:59:47;16.40;99.90
7648;DHT22;3866;48.020;11.720;2023-09-12T02:02:14;16.40;99.90
7648;DHT22;3866;48.020;11.720;2023-09-12T02:04:41;16.40;99.90
7648;DHT22;3866;48.020;11.720;2023-09-12T02:07:08;16.40;99.90
7648;DHT22;3866;48.020;11.720;2023-09-12T02:09:35;16.40;99.90
7648;DHT22;3866;48.020;11.720;2023-09-12T02:12:03;16.30;99.90
7648;DHT22;3866;48.020;11.720;2023-09-12T02:14:30;16.30;99.90
7648;DHT22;3866;48.020;11.720;2023-09-12T02:16:58;16.20;99.90
7648;DHT22;3866;48.020;11.720;2023-09-12T02:19:25;16.20;99.90
7648;DHT22;3866;48.020;11.720;2023-09-12T02:21:52;16.20;99.90
7648;DHT22;3866;48.020;11.720;2023-09-12T02:24:19;16.10;99.90
7648;DHT22;3866;48.020;11.720;2023-09-12T02:26:46;16.10;99.90
7648;DHT22;3866;48.020;11.720;2023-09-12T02:29:13;16.10;99.90
7648;DHT22;3866;48.020;11.720;2023-09-12T02:31:40;16.00;99.90
7648;DHT22;3866;48.020;11.720;2023-09-12T02:34:08;15.90;99.90
7648;DHT22;3866;48.020;11.720;2023-09-12T02:36:35;15.90;99.90
7648;DHT22;3866;48.020;11.720;2023-09-12T02:39:02;15.90;99.90
7648;DHT22;3866;48.020;11.720;2023-09-12T02:41:29;15.80;99.90
7648;DHT22;3866;48.020;11.720;2023-09-12T02:43:56;15.80;99.90
7648;DHT22;3866;48.020;11.720;2023-09-12T02:46:23;15.80;99.90
7648;DHT22;3866;48.020;11.720;2023-09-12T02:48:50;15.80;99.90
7648;DHT22;3866;48.020;11.720;2023-09-12T02:51:19;15.80;99.90
7648;DHT22;3866;48.020;11.720;2023-09-12T02:53:46;15.70;99.90
7648;DHT22;3866;48.020;11.720;2023-09-12T02:56:13;15.70;99.90
7648;DHT22;3866;48.020;11.720;2023-09-12T02:58:40;15.70;99.90
7648;DHT22;3866;48.020;11.720;2023-09-12T03:01:07;15.80;99.90
7648;DHT22;3866;48.020;11.720;2023-09-12T03:03:34;15.80;99.90
7648;DHT22;3866;48.020;11.720;2023-09-12T03:06:01;15.80;99.90
7648;DHT22;3866;48.020;11.720;2023-09-12T03:08:30;15.90;99.90
7648;DHT22;3866;48.020;11.720;2023-09-12T03:10:58;15.80;99.90
7648;DHT22;3866;48.020;11.720;2023-09-12T03:13:27;15.80;99.90
7648;DHT22;3866;48.020;11.720;2023-09-12T03:15:54;15.90;99.90
7648;DHT22;3866;48.020;11.720;2023-09-12T03:18:21;15.90;99.90
7648;DHT22;3866;48.020;11.720;2023-09-12T03:20:48;15.90;99.90
7648;DHT22;3866;48.020;11.720;2023-09-12T03:23:15;15.90;99.90
7648;DHT22;3866;48.020;11.720;2023-09-12T03:25:43;15.80;99.90
7648;DHT22;3866;48.020;11.720;2023-09-12T03:28:10;15.90;99.90
7648;DHT22;3866;48.020;11.720;2023-09-12T03:30:38;15.90;99.90
7648;DHT22;3866;48.020;11.720;2023-09-12T03:33:05;15.90;99.90
7648;DHT22;3866;48.020;11.720;2023-09-12T03:35:33;15.90;99.90
7648;DHT22;3866;48.020;11.720;2023-09-12T03:38:00;16.00;99.90
7648;DHT22;3866;48.020;11.720;2023-09-12T03:40:28;15.90;99.90
7648;DHT22;3866;48.020;11.720;2023-09-12T03:42:57;16.00;99.90
7648;DHT22;3866;48.020;11.720;2023-09-12T03:45:24;15.90;99.90
7648;DHT22;3866;48.020;11.720;2023-09-12T03:47:51;15.90;99.90
7648;DHT22;3866;48.020;11.720;2023-09-12T03:50:18;15.80;99.90
7648;DHT22;3866;48.020;11.720;2023-09-12T03:52:45;15.90;99.90
7648;DHT22;3866;48.020;11.720;2023-09-12T03:55:12;15.90;99.90
7648;DHT22;3866;48.020;11.720;2023-09-12T03:57:39;15.90;99.90
7648;DHT22;3866;48.020;11.720;2023-09-12T04:00:08;15.90;99.90
7648;DHT22;3866;48.020;11.720;2023-09-12T04:02:35;16.00;99.90
7648;DHT22;3866;48.020;11.720;2023-09-12T04:05:02;16.00;99.90
7648;DHT22;3866;48.020;11.720;2023-09-12T04:07:29;15.90;99.90
7648;DHT22;3866;48.020;11.720;2023-09-12T04:09:56;15.90;99.90
7648;DHT22;3866;48.020;11.720;2023-09-12T04:12:23;15.90;99.90
7648;DHT22;3866;48.020;11.720;2023-09-12T04:14:50;16.00;99.90
7648;DHT22;3866;48.020;11.720;2023-09-12T04:17:19;15.90;99.90
7648;DHT22;3866;48.020;11.720;2023-09-12T04:19:45;15.90;99.90
7648;DHT22;3866;48.020;11.720;2023-09-12T04:22:13;15.80;99.90
7648;DHT22;3866;48.020;11.720;2023-09-12T04:24:40;15.80;99.90
7648;DHT22;3866;48.020;11.720;2023-09-12T04:27:07;15.70;99.90
7648;DHT22;3866;48.020;11.720;2023-09-12T04:29:34;15.70;99.90
7648;DHT22;3866;48.020;11.720;2023-09-12T04:32:02;15.70;99.90
7648;DHT22;3866;48.020;11.720;2023-09-12T04:34:30;15.60;99.90
7648;DHT22;3866;48.020;11.720;2023-09-12T04:36:58;15.50;99.90
7648;DHT22;3866;48.020;11.720;2023-09-12T04:39:24;15.50;99.90
7648;DHT22;3866;48.020;11.720;2023-09-12T04:41:51;15.40;99.90
7648;DHT22;3866;48.020;11.720;2023-09-12T04:44:18;15.50;99.90
7648;DHT22;3866;48.020;11.720;2023-09-12T04:46:45;15.50;99.90
7648;DHT22;3866;48.020;11.720;2023-09-12T04:49:12;15.50;99.90
7648;DHT22;3866;48.020;11.720;2023-09-12T04:51:41;15.50;99.90
7648;DHT22;3866;48.020;11.720;2023-09-12T04:54:08;15.50;99.90
7648;DHT22;3866;48.020;11.720;2023-09-12T04:56:35;15.50;99.90
7648;DHT22;3866;48.020;11.720;2023-09-12T04:59:04;15.50;99.90
7648;DHT22;3866;48.020;11.720;2023-09-12T05:01:32;15.40;99.90
7648;DHT22;3866;48.020;11.720;2023-09-12T05:03:59;15.40;99.90
7648;DHT22;3866;48.020;11.720;2023-09-12T05:06:26;15.30;99.90
7648;DHT22;3866;48.020;11.720;2023-09-12T05:08:54;15.30;99.90
7648;DHT22;3866;48.020;11.720;2023-09-12T05:11:22;15.20;99.90
7648;DHT22;3866;48.020;11.720;2023-09-12T05:13:49;15.10;99.90
7648;DHT22;3866;48.020;11.720;2023-09-12T05:16:16;15.10;99.90
7648;DHT22;3866;48.020;11.720;2023-09-12T05:18:43;15.10;99.90
7648;DHT22;3866;48.020;11.720;2023-09-12T05:21:10;15.10;99.90
7648;DHT22;3866;48.020;11.720;2023-09-12T05:23:37;15.10;99.90
7648;DHT22;3866;48.020;11.720;2023-09-12T05:26:05;15.20;99.90
7648;DHT22;3866;48.020;11.720;2023-09-12T05:28:34;15.20;99.90
7648;DHT22;3866;48.020;11.720;2023-09-12T05:31:01;15.30;99.90
7648;DHT22;3866;48.020;11.720;2023-09-12T05:33:28;15.30;99.90
7648;DHT22;3866;48.020;11.720;2023-09-12T05:35:55;15.40;99.90
7648;DHT22;3866;48.020;11.720;2023-09-12T05:38:22;15.50;99.90
7648;DHT22;3866;48.020;11.720;2023-09-12T05:40:49;15.50;99.90
7648;DHT22;3866;48.020;11.720;2023-09-12T05:43:17;15.60;99.90
7648;DHT22;3866;48.020;11.720;2023-09-12T05:45:44;15.70;99.90
7648;DHT22;3866;48.020;11.720;2023-09-12T05:48:11;15.80;99.90
7648;DHT22;3866;48.020;11.720;2023-09-12T05:50:38;16.00;99.90
7648;DHT22;3866;48.020;11.720;2023-09-12T05:53:07;16.30;99.90
7648;DHT22;3866;48.020;11.720;2023-09-12T05:55:34;16.50;99.90
7648;DHT22;3866;48.020;11.720;2023-09-12T05:58:02;16.70;99.90
7648;DHT22;3866;48.020;11.720;2023-09-12T06:00:32;16.70;99.90
7648;DHT22;3866;48.020;11.720;2023-09-12T06:02:59;16.80;99.90
7648;DHT22;3866;48.020;11.720;2023-09-12T06:05:26;16.80;99.90
7648;DHT22;3866;48.020;11.720;2023-09-12T06:07:53;17.00;99.90
7648;DHT22;3866;48.020;11.720;2023-09-12T06:10:20;17.10;99.90
7648;DHT22;3866;48.020;11.720;2023-09-12T06:12:47;17.30;99.90
7648;DHT22;3866;48.020;11.720;2023-09-12T06:15:15;17.80;99.90
7648;DHT22;3866;48.020;11.720;2023-09-12T06:17:43;18.60;99.90
7648;DHT22;3866;48.020;11.720;2023-09-12T06:20:10;20.00;99.90
7648;DHT22;3866;48.020;11.720;2023-09-12T06:22:37;21.30;99.90
7648;DHT22;3866;48.020;11.720;2023-09-12T06:25:06;22.80;99.90
7648;DHT22;3866;48.020;11.720;2023-09-12T06:27:33;23.30;99.90
7648;DHT22;3866;48.020;11.720;2023-09-12T06:30:00;23.60;99.90
7648;DHT22;3866;48.020;11.720;2023-09-12T06:32:27;24.20;99.90
7648;DHT22;3866;48.020;11.720;2023-09-12T06:34:55;25.30;99.90
7648;DHT22;3866;48.020;11.720;2023-09-12T06:37:22;25.90;99.90
7648;DHT22;3866;48.020;11.720;2023-09-12T06:39:49;26.30;99.90
7648;DHT22;3866;48.020;11.720;2023-09-12T06:42:17;27.90;99.90
7648;DHT22;3866;48.020;11.720;2023-09-12T06:44:44;28.10;99.90
7648;DHT22;3866;48.020;11.720;2023-09-12T06:47:13;28.20;99.90
7648;DHT22;3866;48.020;11.720;2023-09-12T06:49:40;28.20;99.90
7648;DHT22;3866;48.020;11.720;2023-09-12T06:52:08;28.00;99.90
7648;DHT22;3866;48.020;11.720;2023-09-12T06:54:36;28.80;99.90
7648;DHT22;3866;48.020;11.720;2023-09-12T06:57:03;29.30;99.90
7648;DHT22;3866;48.020;11.720;2023-09-12T06:59:30;30.10;99.90
7648;DHT22;3866;48.020;11.720;2023-09-12T07:01:57;30.60;99.90
7648;DHT22;3866;48.020;11.720;2023-09-12T07:04:24;31.00;99.90
7648;DHT22;3866;48.020;11.720;2023-09-12T07:06:51;31.30;99.90
7648;DHT22;3866;48.020;11.720;2023-09-12T07:09:19;31.20;99.90
7648;DHT22;3866;48.020;11.720;2023-09-12T07:11:46;31.70;99.90
7648;DHT22;3866;48.020;11.720;2023-09-12T07:14:13;32.60;99.90
7648;DHT22;3866;48.020;11.720;2023-09-12T07:16:40;31.10;99.90
7648;DHT22;3866;48.020;11.720;2023-09-12T07:19:07;32.60;99.90
7648;DHT22;3866;48.020;11.720;2023-09-12T07:21:35;34.00;99.90
7648;DHT22;3866;48.020;11.720;2023-09-12T07:24:02;34.40;99.90
7648;DHT22;3866;48.020;11.720;2023-09-12T07:26:31;34.50;99.90
7648;DHT22;3866;48.020;11.720;2023-09-12T07:28:58;34.30;99.90
7648;DHT22;3866;48.020;11.720;2023-09-12T07:31:28;32.30;99.90
7648;DHT22;3866;48.020;11.720;2023-09-12T07:33:55;28.30;99.90
7648;DHT22;3866;48.020;11.720;2023-09-12T07:36:21;26.90;99.90
7648;DHT22;3866;48.020;11.720;2023-09-12T07:38:48;26.80;99.90
7648;DHT22;3866;48.020;11.720;2023-09-12T07:41:15;27.00;99.90
7648;DHT22;3866;48.020;11.720;2023-09-12T07:43:44;26.70;99.90
7648;DHT22;3866;48.020;11.720;2023-09-12T07:46:11;26.60;99.90
7648;DHT22;3866;48.020;11.720;2023-09-12T07:48:38;26.80;99.90
7648;DHT22;3866;48.020;11.720;2023-09-12T07:51:12;26.90;99.90
7648;DHT22;3866;48.020;11.720;2023-09-12T07:53:40;27.20;99.90
7648;DHT22;3866;48.020;11.720;2023-09-12T07:56:08;26.50;99.90
7648;DHT22;3866;48.020;11.720;2023-09-12T07:58:35;26.40;99.90
7648;DHT22;3866;48.020;11.720;2023-09-12T08:01:06;26.70;99.90
7648;DHT22;3866;48.020;11.720;2023-09-12T08:03:33;26.80;99.90
7648;DHT22;3866;48.020;11.720;2023-09-12T08:06:00;26.60;99.90
7648;DHT22;3866;48.020;11.720;2023-09-12T08:08:28;27.00;99.90
7648;DHT22;3866;48.020;11.720;2023-09-12T08:10:55;26.70;99.90
7648;DHT22;3866;48.020;11.720;2023-09-12T08:13:25;26.10;99.90
7648;DHT22;3866;48.020;11.720;2023-09-12T08:15:52;26.00;99.90
7648;DHT22;3866;48.020;11.720;2023-09-12T08:18:20;26.10;99.90
7648;DHT22;3866;48.020;11.720;2023-09-12T08:20:47;26.30;99.90
7648;DHT22;3866;48.020;11.720;2023-09-12T08:23:14;26.20;99.90
7648;DHT22;3866;48.020;11.720;2023-09-12T08:25:41;26.00;99.90
7648;DHT22;3866;48.020;11.720;2023-09-12T08:28:11;25.70;99.90
7648;DHT22;3866;48.020;11.720;2023-09-12T08:30:37;25.60;99.90
7648;DHT22;3866;48.020;11.720;2023-09-12T08:33:04;25.40;99.90
7648;DHT22;3866;48.020;11.720;2023-09-12T08:35:33;25.50;99.90
7648;DHT22;3866;48.020;11.720;2023-09-12T08:38:00;25.30;99.90
7648;DHT22;3866;48.020;11.720;2023-09-12T08:40:27;25.50;99.90
7648;DHT22;3866;48.020;11.720;2023-09-12T08:42:57;25.50;99.90
7648;DHT22;3866;48.020;11.720;2023-09-12T08:45:24;25.50;99.90
7648;DHT22;3866;48.020;11.720;2023-09-12T08:47:53;25.50;99.90
7648;DHT22;3866;48.020;11.720;2023-09-12T08:50:20;25.40;99.90
7648;DHT22;3866;48.020;11.720;2023-09-12T08:52:50;25.40;99.90
7648;DHT22;3866;48.020;11.720;2023-09-12T08:55:17;26.20;99.90
7648;DHT22;3866;48.020;11.720;2023-09-12T08:57:47;26.30;99.90
7648;DHT22;3866;48.020;11.720;2023-09-12T09:00:15;26.30;99.90
7648;DHT22;3866;48.020;11.720;2023-09-12T09:02:43;25.90;99.90
7648;DHT22;3866;48.020;11.720;2023-09-12T09:05:11;26.70;99.90
7648;DHT22;3866;48.020;11.720;2023-09-12T09:07:39;27.00;99.90
7648;DHT22;3866;48.020;11.720;2023-09-12T09:10:09;26.80;99.90
7648;DHT22;3866;48.020;11.720;2023-09-12T09:12:39;26.90;99.90
7648;DHT22;3866;48.020;11.720;2023-09-12T09:15:23;28.00;99.90
7648;DHT22;3866;48.020;11.720;2023-09-12T09:17:52;28.50;99.90
7648;DHT22;3866;48.020;11.720;2023-09-12T09:20:25;27.60;99.90
7648;DHT22;3866;48.020;11.720;2023-09-12T09:22:57;28.10;99.90
7648;DHT22;3866;48.020;11.720;2023-09-12T09:25:26;27.30;99.90
7648;DHT22;3866;48.020;11.720;2023-09-12T09:27:53;27.50;99.90
7648;DHT22;3866;48.020;11.720;2023-09-12T09:30:39;28.00;99.90
7648;DHT22;3866;48.020;11.720;2023-09-12T09:33:07;28.50;99.90
7648;DHT22;3866;48.020;11.720;2023-09-12T09:35:34;28.70;99.90
7648;DHT22;3866;48.020;11.720;2023-09-12T09:38:02;28.80;99.90
7648;DHT22;3866;48.020;11.720;2023-09-12T09:40:32;29.10;99.90
7648;DHT22;3866;48.020;11.720;2023-09-12T09:42:59;29.30;99.90
7648;DHT22;3866;48.020;11.720;2023-09-12T09:45:27;29.00;99.90
7648;DHT22;3866;48.020;11.720;2023-09-12T09:47:57;28.90;99.90
7648;DHT22;3866;48.020;11.720;2023-09-12T09:50:25;28.70;99.90
7648;DHT22;3866;48.020;11.720;2023-09-12T09:52:54;28.50;99.90
7648;DHT22;3866;48.020;11.720;2023-09-12T09:55:23;28.40;99.90
7648;DHT22;3866;48.020;11.720;2023-09-12T09:57:51;28.40;99.90
7648;DHT22;3866;48.020;11.720;2023-09-12T10:00:20;28.20;99.90
7648;DHT22;3866;48.020;11.720;2023-09-12T10:02:49;28.20;99.90
7648;DHT22;3866;48.020;11.720;2023-09-12T10:05:18;27.80;99.90
7648;DHT22;3866;48.020;11.720;2023-09-12T10:07:49;28.20;99.90
7648;DHT22;3866;48.020;11.720;2023-09-12T10:10:17;28.40;99.90
7648;DHT22;3866;48.020;11.720;2023-09-12T10:12:49;28.20;99.90
7648;DHT22;3866;48.020;11.720;2023-09-12T10:15:19;27.90;99.90
7648;DHT22;3866;48.020;11.720;2023-09-12T10:17:53;27.80;99.90
7648;DHT22;3866;48.020;11.720;2023-09-12T10:20:25;27.90;99.90
7648;DHT22;3866;48.020;11.720;2023-09-12T10:23:02;28.00;99.90
7648;DHT22;3866;48.020;11.720;2023-09-12T10:25:34;28.20;99.90
7648;DHT22;3866;48.020;11.720;2023-09-12T10:28:03;28.00;99.90
7648;DHT22;3866;48.020;11.720;2023-09-12T10:30:32;28.10;99.90
7648;DHT22;3866;48.020;11.720;2023-09-12T10:33:01;28.50;99.90
7648;DHT22;3866;48.020;11.720;2023-09-12T10:35:30;28.60;99.90
7648;DHT22;3866;48.020;11.720;2023-09-12T10:38:00;28.40;99.90
7648;DHT22;3866;48.020;11.720;2023-09-12T10:40:29;27.80;99.90
7648;DHT22;3866;48.020;11.720;2023-09-12T10:42:57;28.00;99.90
7648;DHT22;3866;48.020;11.720;2023-09-12T10:45:27;28.10;99.90
7648;DHT22;3866;48.020;11.720;2023-09-12T10:47:56;27.60;99.90
7648;DHT22;3866;48.020;11.720;2023-09-12T10:50:23;27.30;99.90
7648;DHT22;3866;48.020;11.720;2023-09-12T10:52:50;27.10;99.90
7648;DHT22;3866;48.020;11.720;2023-09-12T10:55:17;27.10;99.90
7648;DHT22;3866;48.020;11.720;2023-09-12T10:58:01;27.20;99.90
7648;DHT22;3866;48.020;11.720;2023-09-12T11:00:29;27.40;99.90
7648;DHT22;3866;48.020;11.720;2023-09-12T11:03:00;27.60;99.90
7648;DHT22;3866;48.020;11.720;2023-09-12T11:05:53;27.50;99.90
7648;DHT22;3866;48.020;11.720;2023-09-12T11:08:21;27.80;99.90
7648;DHT22;3866;48.020;11.720;2023-09-12T11:11:19;28.10;99.90
7648;DHT22;3866;48.020;11.720;2023-09-12T11:13:47;28.40;99.90
7648;DHT22;3866;48.020;11.720;2023-09-12T11:16:28;28.30;99.90
7648;DHT22;3866;48.020;11.720;2023-09-12T11:19:17;28.40;99.90
7648;DHT22;3866;48.020;11.720;2023-09-12T11:21:46;28.80;99.90
7648;DHT22;3866;48.020;11.720;2023-09-12T11:24:14;28.50;99.90
7648;DHT22;3866;48.020;11.720;2023-09-12T11:26:55;28.20;99.90
7648;DHT22;3866;48.020;11.720;2023-09-12T11:29:26;28.40;99.90
7648;DHT22;3866;48.020;11.720;2023-09-12T11:31:55;28.70;99.90
7648;DHT22;3866;48.020;11.720;2023-09-12T11:34:29;28.80;99.90
7648;DHT22;3866;48.020;11.720;2023-09-12T11:36:58;28.80;99.90
7648;DHT22;3866;48.020;11.720;2023-09-12T11:39:28;28.30;99.90
7648;DHT22;3866;48.020;11.720;2023-09-12T11:41:56;28.10;99.90
7648;DHT22;3866;48.020;11.720;2023-09-12T11:44:23;28.40;99.90
7648;DHT22;3866;48.020;11.720;2023-09-12T11:46:52;28.40;99.90
7648;DHT22;3866;48.020;11.720;2023-09-12T11:49:19;28.10;99.90
7648;DHT22;3866;48.020;11.720;2023-09-12T11:51:48;28.10;99.90
7648;DHT22;3866;48.020;11.720;2023-09-12T11:54:17;28.30;99.90
7648;DHT22;3866;48.020;11.720;2023-09-12T11:56:46;28.10;99.90
7648;DHT22;3866;48.020;11.720;2023-09-12T11:59:13;27.90;99.90
7648;DHT22;3866;48.020;11.720;2023-09-12T12:01:40;28.10;99.90
7648;DHT22;3866;48.020;11.720;2023-09-12T12:04:07;28.20;99.90
7648;DHT22;3866;48.020;11.720;2023-09-12T12:06:36;28.50;99.90
7648;DHT22;3866;48.020;11.720;2023-09-12T12:09:04;28.80;99.90
7648;DHT22;3866;48.020;11.720;2023-09-12T12:11:31;29.20;99.90
7648;DHT22;3866;48.020;11.720;2023-09-12T12:14:09;29.60;99.90
7648;DHT22;3866;48.020;11.720;2023-09-12T12:16:36;29.10;99.90
7648;DHT22;3866;48.020;11.720;2023-09-12T12:19:03;29.00;99.90
7648;DHT22;3866;48.020;11.720;2023-09-12T12:21:30;29.30;99.90
7648;DHT22;3866;48.020;11.720;2023-09-12T12:23:59;29.60;99.90
7648;DHT22;3866;48.020;11.720;2023-09-12T12:26:27;30.60;99.90
7648;DHT22;3866;48.020;11.720;2023-09-12T12:28:54;30.60;99.90
7648;DHT22;3866;48.020;11.720;2023-09-12T12:31:22;30.60;99.90
7648;DHT22;3866;48.020;11.720;2023-09-12T12:33:51;30.90;99.90
7648;DHT22;3866;48.020;11.720;2023-09-12T12:36:19;30.50;99.90
7648;DHT22;3866;48.020;11.720;2023-09-12T12:38:47;29.80;99.90
7648;DHT22;3866;48.020;11.720;2023-09-12T12:41:15;29.70;99.90
7648;DHT22;3866;48.020;11.720;2023-09-12T12:43:44;29.40;99.90
7648;DHT22;3866;48.020;11.720;2023-09-12T12:46:11;29.90;99.90
7648;DHT22;3866;48.020;11.720;2023-09-12T12:48:43;30.10;99.90
7648;DHT22;3866;48.020;11.720;2023-09-12T12:51:16;30.10;99.90
7648;DHT22;3866;48.020;11.720;2023-09-12T12:53:45;29.60;99.90
7648;DHT22;3866;48.020;11.720;2023-09-12T12:56:14;30.20;99.90
7648;DHT22;3866;48.020;11.720;2023-09-12T12:58:47;30.40;99.90
7648;DHT22;3866;48.020;11.720;2023-09-12T13:01:15;29.90;99.90
7648;DHT22;3866;48.020;11.720;2023-09-12T13:03:42;29.90;99.90
7648;DHT22;3866;48.020;11.720;2023-09-12T13:06:09;30.30;99.90
7648;DHT22;3866;48.020;11.720;2023-09-12T13:08:40;29.90;99.90
7648;DHT22;3866;48.020;11.720;2023-09-12T13:11:09;29.70;99.90
7648;DHT22;3866;48.020;11.720;2023-09-12T13:13:36;29.60;99.90
7648;DHT22;3866;48.020;11.720;2023-09-12T13:16:05;29.90;99.90
7648;DHT22;3866;48.020;11.720;2023-09-12T13:18:38;29.60;99.90
7648;DHT22;3866;48.020;11.720;2023-09-12T13:21:05;29.50;99.90
7648;DHT22;3866;48.020;11.720;2023-09-12T13:23:35;29.40;99.90
7648;DHT22;3866;48.020;11.720;2023-09-12T13:26:02;29.70;99.90
7648;DHT22;3866;48.020;11.720;2023-09-12T13:28:29;29.80;99.90
7648;DHT22;3866;48.020;11.720;2023-09-12T13:30:57;29.60;99.90
7648;DHT22;3866;48.020;11.720;2023-09-12T13:33:25;29.80;99.90
7648;DHT22;3866;48.020;11.720;2023-09-12T13:35:52;29.60;99.90
7648;DHT22;3866;48.020;11.720;2023-09-12T13:38:19;29.80;99.90
7648;DHT22;3866;48.020;11.720;2023-09-12T13:40:48;30.10;99.90
7648;DHT22;3866;48.020;11.720;2023-09-12T13:43:15;30.10;99.90
7648;DHT22;3866;48.020;11.720;2023-09-12T13:45:42;29.70;99.90
7648;DHT22;3866;48.020;11.720;2023-09-12T13:48:09;29.70;99.90
7648;DHT22;3866;48.020;11.720;2023-09-12T13:50:39;29.60;99.90
7648;DHT22;3866;48.020;11.720;2023-09-12T13:53:08;29.70;99.90
7648;DHT22;3866;48.020;11.720;2023-09-12T13:55:36;29.90;99.90
7648;DHT22;3866;48.020;11.720;2023-09-12T13:58:04;29.80;99.90
7648;DHT22;3866;48.020;11.720;2023-09-12T14:00:31;29.80;99.90
7648;DHT22;3866;48.020;11.720;2023-09-12T14:02:58;29.80;99.90
7648;DHT22;3866;48.020;11.720;2023-09-12T14:05:25;29.80;99.90
7648;DHT22;3866;48.020;11.720;2023-09-12T14:07:53;29.80;99.90
7648;DHT22;3866;48.020;11.720;2023-09-12T14:10:20;29.90;99.90
7648;DHT22;3866;48.020;11.720;2023-09-12T14:12:47;29.70;99.90
7648;DHT22;3866;48.020;11.720;2023-09-12T14:15:14;29.50;99.90
7648;DHT22;3866;48.020;11.720;2023-09-12T14:17:41;29.40;99.90
7648;DHT22;3866;48.020;11.720;2023-09-12T14:20:09;29.60;99.90
7648;DHT22;3866;48.020;11.720;2023-09-12T14:22:40;29.50;99.90
7648;DHT22;3866;48.020;11.720;2023-09-12T14:25:09;29.70;99.90
7648;DHT22;3866;48.020;11.720;2023-09-12T14:27:41;29.70;99.90
7648;DHT22;3866;48.020;11.720;2023-09-12T14:30:08;29.40;99.90
7648;DHT22;3866;48.020;11.720;2023-09-12T14:32:35;29.30;99.90
7648;DHT22;3866;48.020;11.720;2023-09-12T14:35:03;29.10;99.90
7648;DHT22;3866;48.020;11.720;2023-09-12T14:37:30;29.00;99.90
7648;DHT22;3866;48.020;11.720;2023-09-12T14:39:57;29.00;99.90
7648;DHT22;3866;48.020;11.720;2023-09-12T14:42:26;29.10;99.90
7648;DHT22;3866;48.020;11.720;2023-09-12T14:44:54;29.10;99.90
7648;DHT22;3866;48.020;11.720;2023-09-12T14:47:21;29.00;99.90
7648;DHT22;3866;48.020;11.720;2023-09-12T14:49:49;28.80;99.90
7648;DHT22;3866;48.020;11.720;2023-09-12T14:52:16;28.50;99.90
7648;DHT22;3866;48.020;11.720;2023-09-12T14:54:43;28.50;99.90
7648;DHT22;3866;48.020;11.720;2023-09-12T14:57:10;28.40;99.90
7648;DHT22;3866;48.020;11.720;2023-09-12T14:59:38;28.60;99.90
7648;DHT22;3866;48.020;11.720;2023-09-12T15:02:05;28.60;99.90
7648;DHT22;3866;48.020;11.720;2023-09-12T15:04:32;28.70;99.90
7648;DHT22;3866;48.020;11.720;2023-09-12T15:06:59;28.50;99.90
7648;DHT22;3866;48.020;11.720;2023-09-12T15:09:26;28.40;99.90
7648;DHT22;3866;48.020;11.720;2023-09-12T15:11:53;28.30;99.90
7648;DHT22;3866;48.020;11.720;2023-09-12T15:14:19;28.10;99.90
7648;DHT22;3866;48.020;11.720;2023-09-12T15:16:49;28.10;99.90
7648;DHT22;3866;48.020;11.720;2023-09-12T15:19:16;28.00;99.90
7648;DHT22;3866;48.020;11.720;2023-09-12T15:21:43;28.20;99.90
7648;DHT22;3866;48.020;11.720;2023-09-12T15:24:10;28.40;99.90
7648;DHT22;3866;48.020;11.720;2023-09-12T15:26:37;28.40;99.90
7648;DHT22;3866;48.020;11.720;2023-09-12T15:29:03;28.40;99.90
7648;DHT22;3866;48.020;11.720;2023-09-12T15:31:33;28.00;99.90
7648;DHT22;3866;48.020;11.720;2023-09-12T15:34:01;27.80;99.90
7648;DHT22;3866;48.020;11.720;2023-09-12T15:36:28;27.90;99.90
7648;DHT22;3866;48.020;11.720;2023-09-12T15:38:55;27.90;99.90
7648;DHT22;3866;48.020;11.720;2023-09-12T15:41:23;28.00;99.90
7648;DHT22;3866;48.020;11.720;2023-09-12T15:43:50;27.90;99.90
7648;DHT22;3866;48.020;11.720;2023-09-12T15:46:17;27.90;99.90
7648;DHT22;3866;48.020;11.720;2023-09-12T15:48:44;27.90;99.90
7648;DHT22;3866;48.020;11.720;2023-09-12T15:51:12;28.00;99.90
7648;DHT22;3866;48.020;11.720;2023-09-12T15:53:39;27.90;99.90